Flight Track Log - Related Links

Times and Time Zones

All times are in EDT time to prevent confusion due to time zone crossing. See the UAL5900 flight status page for this flight to view local times or setup timezone preferences in your user account.

Time Position Orientation Groundspeed Altitude Reporting Facility
EDT Latitude Longitude Course Direction KTS MPH feet Rate Location/Type
Mon 05:55:29 AM 43.6681 -70.1811 216° Southwest 240 276 3,500  Level Boston Center
Mon 05:56:29 AM 43.6356 -70.1164 125° Southeast 224 258 5,500 1,950 Climbing Boston Center
Mon 05:57:00 AM 43.4416 -70.3002 235° Southwest  Level FlightAware Approximate
Mon 05:57:29 AM 43.5711 -70.1244 185° South 168 193 7,400  Level Boston Center
Mon 05:58:00 AM 43.3716 -70.4131 226° Southwest  Level FlightAware Approximate
Mon 05:58:29 AM 43.5306 -70.1864 228° Southwest 215 247 8,500  Level Boston Center
Mon 05:59:00 AM 43.3002 -70.5247 232° Southwest  Level FlightAware Approximate
Mon 05:59:29 AM 43.4761 -70.2714 229° Southwest 262 302 10,600  Level Boston Center
Mon 06:00:00 AM 43.2231 -70.6270 216° Southwest  Level FlightAware Approximate
Mon 06:00:29 AM 43.4233 -70.3503 227° Southwest 276 318 11,800  Level Boston Center
Mon 06:01:29 AM 43.3517 -70.4269 218° Southwest 317 365 12,800 1,000 Climbing Boston Center
Mon 06:02:29 AM 43.2761 -70.5067 218° Southwest 344 396 13,800 1,150 Climbing Boston Center
Mon 06:03:29 AM 43.1961 -70.5861 216° Southwest 356 410 15,100 1,300 Climbing Boston Center
Mon 06:04:29 AM 43.1161 -70.6681 217° Southwest 356 410 16,400 1,350 Climbing Boston Center
Mon 06:05:29 AM 43.0381 -70.7469 216° Southwest 361 415 17,800 1,300 Climbing Boston Center
Mon 06:06:29 AM 42.9600 -70.8286 217° Southwest 361 415 19,000 1,200 Climbing Boston Center
Mon 06:07:29 AM 42.8861 -70.9042 217° Southwest 361 415 20,200 1,300 Climbing Boston Center
Mon 06:08:29 AM 42.7994 -70.9714 210° Southwest 366 421 21,600 1,350 Climbing Boston Center
Mon 06:09:29 AM 42.7022 -71.0219 201° Southwest 366 421 22,900 1,350 Climbing Boston Center
Mon 06:10:29 AM 42.6028 -71.0719 200° South 381 438 24,300 1,300 Climbing Boston Center
Mon 06:11:29 AM 42.5139 -71.1361 208° Southwest 381 438 25,500 1,250 Climbing Boston Center
Mon 06:12:29 AM 42.4714 -71.2522 244° Southwest 345 397 26,800 1,200 Climbing Boston Center
Mon 06:13:29 AM 42.4392 -71.3739 250° West 337 388 27,900 1,100 Climbing Boston Center
Mon 06:14:29 AM 42.4069 -71.4897 249° West 337 388 29,000 1,050 Climbing Boston Center
Mon 06:15:29 AM 42.3683 -71.6194 248° West 337 388 30,000 1,000 Climbing Boston Center
Mon 06:16:29 AM 42.3317 -71.7408 248° West 337 388 31,000 950 Climbing Boston Center
Mon 06:17:29 AM 42.2989 -71.8647 250° West 348 400 31,900 500 Climbing Boston Center
Mon 06:18:29 AM 42.2619 -71.9942 249° West 361 415 32,000 50 Climbing Boston Center
Mon 06:19:29 AM 42.2228 -72.1317 249° West 377 434 32,000  Level Boston Center
Mon 06:20:29 AM 42.1836 -72.2719 249° West 396 456 32,000  Level Boston Center
Mon 06:21:29 AM 42.1419 -72.4178 249° West 407 468 32,000  Level Boston Center
Mon 06:22:29 AM 42.1003 -72.5661 249° West 412 474 32,000  Level Boston Center
Mon 06:23:29 AM 42.0644 -72.6917 249° West 417 480 32,000  Level Boston Center
Mon 06:24:29 AM 42.0225 -72.8425 250° West 417 480 32,000  Level Boston Center
Mon 06:25:29 AM 41.9717 -73.0097 248° West 431 496 32,000  Level Boston Center
Mon 06:26:29 AM 41.8961 -73.1372 232° Southwest 442 509 32,000  Level Boston Center
Mon 06:27:29 AM 41.8078 -73.2533 224° Southwest 442 509 32,000  Level Boston Center
Mon 06:28:29 AM 41.7172 -73.3689 224° Southwest 448 516 32,000  Level Boston Center
Mon 06:29:29 AM 41.6286 -73.4844 224° Southwest 448 516 32,000  Level Boston Center
Mon 06:30:29 AM 41.5378 -73.5994 223° Southwest 448 516 32,000  Level Boston Center
Mon 06:31:29 AM 41.4808 -73.6758 225° Southwest 443 510 32,000  Level Boston Center
Mon 06:32:39 AM 41.3553 -73.8336 223° Southwest 431 496 32,000  Level New York Center
Mon 06:33:40 AM 41.2647 -73.9425 222° Southwest 437 503 32,000  Level New York Center
Mon 06:34:41 AM 41.1742 -74.0594 224° Southwest 437 503 32,000  Level New York Center
Mon 06:35:41 AM 41.1017 -74.1908 234° Southwest 443 510 32,000 -496 Level New York Center
Mon 06:36:42 AM 41.0311 -74.3250 235° Southwest 453 521 31,000 -1,300 Descending New York Center
Mon 06:37:41 AM 40.9642 -74.4642 238° Southwest 453 521 29,400 -1,538 Descending New York Center
Mon 06:38:39 AM 40.9039 -74.5928 238° Southwest 438 504 28,000 -712 Descending New York Center
Mon 06:39:39 AM 40.8431 -74.7292 240° Southwest 433 498 28,000  Level New York Center
Mon 06:40:40 AM 40.7822 -74.8656 240° Southwest 433 498 28,000  Level New York Center
Mon 06:41:41 AM 40.7189 -75.0067 239° Southwest 438 504 28,000  Level New York Center
Mon 06:42:41 AM 40.6556 -75.1422 238° Southwest 438 504 28,000  Level New York Center
Mon 06:43:42 AM 40.5942 -75.2806 240° Southwest 438 504 28,000 -356 Level New York Center
Mon 06:44:39 AM 40.5328 -75.4158 239° Southwest 438 504 27,300 -1,169 Descending New York Center
Mon 06:45:40 AM 40.4667 -75.5558 238° Southwest 443 510 25,700 -1,736 Descending New York Center
Mon 06:46:40 AM 40.4047 -75.6933 239° Southwest 443 510 23,800 -2,380 Descending New York Center
Mon 06:47:41 AM 40.3431 -75.8225 238° Southwest 443 510 20,900 -1,884 Descending New York Center
Mon 06:48:41 AM 40.2833 -75.9458 238° Southwest 425 489 20,000 -450 Descending New York Center
Mon 06:49:41 AM 40.2214 -76.0747 238° Southwest 420 483 20,000 -458 Level New York Center
Mon 06:50:39 AM 40.1617 -76.2006 238° Southwest 420 483 19,100 -937 Descending New York Center
Mon 06:53:06 AM 40.0167 -76.5167 239° Southwest 395 455 16,800 -955 Descending Potomac TRACON
Mon 06:54:00 AM 39.9667 -76.6333 241° Southwest 401 461 15,900 -944 Descending Potomac TRACON
Mon 06:54:54 AM 39.9167 -76.7333 237° Southwest 402 463 15,100 -444 Descending Potomac TRACON
Mon 06:55:48 AM 39.8667 -76.8500 241° Southwest 398 458 15,100 -333 Level Potomac TRACON
Mon 06:56:42 AM 39.8167 -76.9500 237° Southwest 391 450 14,500 -1,053 Descending Potomac TRACON
Mon 06:57:42 AM 39.7500 -77.0667 233° Southwest 386 444 13,100 -1,500 Descending Potomac TRACON
Mon 06:58:42 AM 39.7000 -77.1833 241° Southwest 364 419 11,500 -1,400 Descending Potomac TRACON
Mon 06:59:42 AM 39.6500 -77.2833 237° Southwest 346 398 10,300 -1,211 Descending Potomac TRACON
Mon 07:00:36 AM 39.5833 -77.3000 191° South 285 328 9,200 -1,737 Descending Potomac TRACON
Mon 07:01:36 AM 39.5000 -77.3167 189° South 270 311 7,000 -2,053 Descending Potomac TRACON
Mon 07:02:30 AM 39.4500 -77.3000 166° South 252 290 5,300 -1,421 Descending Potomac TRACON
Mon 07:03:30 AM 39.3833 -77.3333 201° Southwest 239 275 4,300 -600 Descending Potomac TRACON
Mon 07:04:30 AM 39.3333 -77.3833 218° Southwest 241 277 4,100 -579 Descending Potomac TRACON
Mon 07:05:24 AM 39.2833 -77.4333 218° Southwest 239 275 3,200 -526 Descending Potomac TRACON
Mon 07:06:24 AM 39.2167 -77.4333 180° South 230 265 3,100 -50 Descending Potomac TRACON
Mon 07:07:24 AM 39.1500 -77.4333 180° South 224 258 3,100 -50 Level Potomac TRACON
Mon 07:08:24 AM 39.1000 -77.4333 180° South 206 237 3,000 -100 Descending Potomac TRACON

Login

Don't have an account? Register now (free) for customized features, flight alerts, and more!